sensor_id;sensor_type;location;lat;lon;timestamp;pressure;altitude;pressure_sealevel;temperature;humidity
13661;BME280;6903;49.480;11.102;2022-09-12T00:02:10;98114.38;;;12.85;100.00
13661;BME280;6903;49.480;11.102;2022-09-12T00:04:35;98103.22;;;12.82;100.00
13661;BME280;6903;49.480;11.102;2022-09-12T00:07:01;98109.47;;;12.81;100.00
13661;BME280;6903;49.480;11.102;2022-09-12T00:09:26;98105.97;;;12.80;100.00
13661;BME280;6903;49.480;11.102;2022-09-12T00:11:51;98109.75;;;12.78;100.00
13661;BME280;6903;49.480;11.102;2022-09-12T00:14:17;98101.09;;;12.76;100.00
13661;BME280;6903;49.480;11.102;2022-09-12T00:16:43;98098.00;;;12.71;100.00
13661;BME280;6903;49.480;11.102;2022-09-12T00:19:09;98098.41;;;12.66;100.00
13661;BME280;6903;49.480;11.102;2022-09-12T00:21:37;98096.59;;;12.67;100.00
13661;BME280;6903;49.480;11.102;2022-09-12T00:24:03;98097.00;;;12.62;100.00
13661;BME280;6903;49.480;11.102;2022-09-12T00:26:30;98094.34;;;12.62;100.00
13661;BME280;6903;49.480;11.102;2022-09-12T00:28:55;98096.03;;;12.63;100.00
13661;BME280;6903;49.480;11.102;2022-09-12T00:31:22;98086.41;;;12.62;100.00
13661;BME280;6903;49.480;11.102;2022-09-12T00:33:48;98091.13;;;12.59;100.00
13661;BME280;6903;49.480;11.102;2022-09-12T00:36:16;98094.34;;;12.62;100.00
13661;BME280;6903;49.480;11.102;2022-09-12T00:38:43;98084.72;;;12.61;100.00
13661;BME280;6903;49.480;11.102;2022-09-12T00:41:29;98098.78;;;12.62;100.00
13661;BME280;6903;49.480;11.102;2022-09-12T00:46:37;98084.59;;;12.63;100.00
13661;BME280;6903;49.480;11.102;2022-09-12T00:49:25;98089.75;;;12.64;100.00
13661;BME280;6903;49.480;11.102;2022-09-12T00:51:59;98086.41;;;12.62;100.00
13661;BME280;6903;49.480;11.102;2022-09-12T00:54:34;98086.69;;;12.59;100.00
13661;BME280;6903;49.480;11.102;2022-09-12T00:57:03;98081.22;;;12.51;100.00
13661;BME280;6903;49.480;11.102;2022-09-12T00:59:33;98085.34;;;12.44;100.00
13661;BME280;6903;49.480;11.102;2022-09-12T01:02:02;98072.97;;;12.45;100.00
13661;BME280;6903;49.480;11.102;2022-09-12T01:04:27;98065.84;;;12.45;100.00
13661;BME280;6903;49.480;11.102;2022-09-12T01:06:55;98076.16;;;12.48;100.00
13661;BME280;6903;49.480;11.102;2022-09-12T01:09:22;98071.41;;;12.42;100.00
13661;BME280;6903;49.480;11.102;2022-09-12T01:11:48;98066.75;;;12.35;100.00
13661;BME280;6903;49.480;11.102;2022-09-12T01:14:16;98068.69;;;12.33;100.00
13661;BME280;6903;49.480;11.102;2022-09-12T01:16:42;98073.41;;;12.29;100.00
13661;BME280;6903;49.480;11.102;2022-09-12T01:19:32;98070.06;;;12.27;100.00
13661;BME280;6903;49.480;11.102;2022-09-12T01:22:35;98069.34;;;12.25;100.00
13661;BME280;6903;49.480;11.102;2022-09-12T01:25:39;98063.94;;;12.27;100.00
13661;BME280;6903;49.480;11.102;2022-09-12T01:28:52;98066.72;;;12.25;100.00
13661;BME280;6903;49.480;11.102;2022-09-12T01:31:20;98063.47;;;12.22;100.00
13661;BME280;6903;49.480;11.102;2022-09-12T01:34:03;98058.19;;;12.22;100.00
13661;BME280;6903;49.480;11.102;2022-09-12T01:36:43;98055.81;;;12.19;100.00
13661;BME280;6903;49.480;11.102;2022-09-12T01:45:25;98052.50;;;12.26;100.00
13661;BME280;6903;49.480;11.102;2022-09-12T01:48:03;98053.63;;;12.24;100.00
13661;BME280;6903;49.480;11.102;2022-09-12T01:50:35;98053.03;;;12.20;100.00
13661;BME280;6903;49.480;11.102;2022-09-12T01:53:14;98055.69;;;12.20;100.00
13661;BME280;6903;49.480;11.102;2022-09-12T01:55:45;98044.72;;;12.25;100.00
13661;BME280;6903;49.480;11.102;2022-09-12T01:58:24;98039.69;;;12.22;100.00
13661;BME280;6903;49.480;11.102;2022-09-12T02:01:01;98040.84;;;12.08;100.00
13661;BME280;6903;49.480;11.102;2022-09-12T02:03:38;98037.50;;;12.06;100.00
13661;BME280;6903;49.480;11.102;2022-09-12T02:06:08;98037.31;;;11.98;100.00
13661;BME280;6903;49.480;11.102;2022-09-12T02:08:40;98036.97;;;11.92;100.00
13661;BME280;6903;49.480;11.102;2022-09-12T02:11:10;98040.56;;;11.91;100.00
13661;BME280;6903;49.480;11.102;2022-09-12T02:13:55;98041.94;;;11.85;100.00
13661;BME280;6903;49.480;11.102;2022-09-12T02:16:32;98036.91;;;11.82;100.00
13661;BME280;6903;49.480;11.102;2022-09-12T02:19:09;98038.84;;;11.80;100.00
13661;BME280;6903;49.480;11.102;2022-09-12T02:21:38;98032.13;;;11.76;100.00
13661;BME280;6903;49.480;11.102;2022-09-12T02:24:09;98036.47;;;11.77;100.00
13661;BME280;6903;49.480;11.102;2022-09-12T02:26:53;98039.97;;;11.87;100.00
13661;BME280;6903;49.480;11.102;2022-09-12T02:29:19;98038.59;;;11.83;100.00
13661;BME280;6903;49.480;11.102;2022-09-12T02:31:56;98026.34;;;11.82;100.00
13661;BME280;6903;49.480;11.102;2022-09-12T02:35:19;98029.47;;;11.76;100.00
13661;BME280;6903;49.480;11.102;2022-09-12T02:37:37;98030.00;;;11.70;100.00
13661;BME280;6903;49.480;11.102;2022-09-12T02:40:06;98026.63;;;11.68;100.00
13661;BME280;6903;49.480;11.102;2022-09-12T02:42:33;98024.00;;;11.68;100.00
13661;BME280;6903;49.480;11.102;2022-09-12T02:44:59;98030.13;;;11.69;100.00
13661;BME280;6903;49.480;11.102;2022-09-12T02:47:32;98023.75;;;11.60;100.00
13661;BME280;6903;49.480;11.102;2022-09-12T02:49:58;98020.28;;;11.60;100.00
13661;BME280;6903;49.480;11.102;2022-09-12T02:52:25;98025.00;;;11.56;100.00
13661;BME280;6903;49.480;11.102;2022-09-12T02:54:52;98022.47;;;11.55;100.00
13661;BME280;6903;49.480;11.102;2022-09-12T02:57:19;98025.00;;;11.56;100.00
13661;BME280;6903;49.480;11.102;2022-09-12T02:59:46;98032.66;;;11.59;100.00
13661;BME280;6903;49.480;11.102;2022-09-12T03:02:24;98027.63;;;11.56;100.00
13661;BME280;6903;49.480;11.102;2022-09-12T03:10:51;98028.00;;;11.52;100.00
13661;BME280;6903;49.480;11.102;2022-09-12T03:13:28;98023.88;;;11.59;100.00
13661;BME280;6903;49.480;11.102;2022-09-12T03:18:57;98026.19;;;11.52;100.00
13661;BME280;6903;49.480;11.102;2022-09-12T03:21:32;98019.63;;;11.47;100.00
13661;BME280;6903;49.480;11.102;2022-09-12T03:24:15;98017.59;;;11.39;100.00
13661;BME280;6903;49.480;11.102;2022-09-12T03:27:09;98017.38;;;11.31;100.00
13661;BME280;6903;49.480;11.102;2022-09-12T03:29:37;98015.84;;;11.28;100.00
13661;BME280;6903;49.480;11.102;2022-09-12T03:32:04;98017.63;;;11.28;100.00
13661;BME280;6903;49.480;11.102;2022-09-12T03:34:29;98020.25;;;11.28;100.00
13661;BME280;6903;49.480;11.102;2022-09-12T03:36:55;98018.97;;;11.22;100.00
13661;BME280;6903;49.480;11.102;2022-09-12T03:39:21;98027.25;;;11.18;100.00
13661;BME280;6903;49.480;11.102;2022-09-12T03:41:49;98028.34;;;11.15;100.00
13661;BME280;6903;49.480;11.102;2022-09-12T03:44:14;98021.75;;;11.10;100.00
13661;BME280;6903;49.480;11.102;2022-09-12T03:46:40;98021.75;;;11.10;100.00
13661;BME280;6903;49.480;11.102;2022-09-12T03:49:05;98018.53;;;11.06;100.00
13661;BME280;6903;49.480;11.102;2022-09-12T03:51:30;98027.75;;;11.12;100.00
13661;BME280;6903;49.480;11.102;2022-09-12T03:53:56;98026.47;;;11.06;100.00
13661;BME280;6903;49.480;11.102;2022-09-12T03:56:21;98024.41;;;10.99;100.00
13661;BME280;6903;49.480;11.102;2022-09-12T03:58:46;98037.47;;;11.00;100.00
13661;BME280;6903;49.480;11.102;2022-09-12T04:01:14;98026.69;;;10.92;100.00
13661;BME280;6903;49.480;11.102;2022-09-12T04:03:40;98030.91;;;10.95;100.00
13661;BME280;6903;49.480;11.102;2022-09-12T04:06:07;98022.41;;;10.91;100.00
13661;BME280;6903;49.480;11.102;2022-09-12T04:08:34;98034.00;;;10.89;100.00
13661;BME280;6903;49.480;11.102;2022-09-12T04:11:04;98023.84;;;10.84;100.00
13661;BME280;6903;49.480;11.102;2022-09-12T04:13:30;98019.78;;;10.80;100.00
13661;BME280;6903;49.480;11.102;2022-09-12T04:15:57;98017.00;;;10.82;100.00
13661;BME280;6903;49.480;11.102;2022-09-12T04:18:23;98018.69;;;10.83;100.00
13661;BME280;6903;49.480;11.102;2022-09-12T04:20:48;98019.66;;;10.82;100.00
13661;BME280;6903;49.480;11.102;2022-09-12T04:23:14;98024.06;;;10.81;100.00
13661;BME280;6903;49.480;11.102;2022-09-12T04:25:39;98028.28;;;10.84;100.00
13661;BME280;6903;49.480;11.102;2022-09-12T04:28:04;98024.31;;;10.89;100.00
13661;BME280;6903;49.480;11.102;2022-09-12T04:30:30;98024.06;;;10.92;100.00
13661;BME280;6903;49.480;11.102;2022-09-12T04:32:55;98023.59;;;10.87;100.00
13661;BME280;6903;49.480;11.102;2022-09-12T04:35:20;98027.56;;;10.82;100.00
13661;BME280;6903;49.480;11.102;2022-09-12T04:37:46;98027.56;;;10.82;100.00
13661;BME280;6903;49.480;11.102;2022-09-12T04:40:11;98014.25;;;10.83;100.00
13661;BME280;6903;49.480;11.102;2022-09-12T04:42:36;98023.25;;;10.92;100.00
13661;BME280;6903;49.480;11.102;2022-09-12T04:45:02;98025.75;;;10.93;100.00
13661;BME280;6903;49.480;11.102;2022-09-12T04:47:27;98021.53;;;10.91;100.00
13661;BME280;6903;49.480;11.102;2022-09-12T04:49:53;98021.16;;;10.95;100.00
13661;BME280;6903;49.480;11.102;2022-09-12T04:52:18;98018.88;;;11.13;100.00
13661;BME280;6903;49.480;11.102;2022-09-12T04:54:43;98025.94;;;11.23;100.00
13661;BME280;6903;49.480;11.102;2022-09-12T04:57:09;98025.53;;;11.28;100.00
13661;BME280;6903;49.480;11.102;2022-09-12T04:59:34;98020.44;;;11.15;100.00
13661;BME280;6903;49.480;11.102;2022-09-12T05:01:59;98023.53;;;11.20;100.00
13661;BME280;6903;49.480;11.102;2022-09-12T05:04:25;98029.19;;;11.16;100.00
13661;BME280;6903;49.480;11.102;2022-09-12T05:06:50;98030.47;;;11.21;100.00
13661;BME280;6903;49.480;11.102;2022-09-12T05:09:16;98030.56;;;11.31;100.00
13661;BME280;6903;49.480;11.102;2022-09-12T05:11:43;98038.22;;;11.45;100.00
13661;BME280;6903;49.480;11.102;2022-09-12T05:14:10;98042.75;;;11.54;100.00
13661;BME280;6903;49.480;11.102;2022-09-12T05:16:35;98037.09;;;11.59;100.00
13661;BME280;6903;49.480;11.102;2022-09-12T05:19:00;98032.78;;;11.58;100.00
13661;BME280;6903;49.480;11.102;2022-09-12T05:21:26;98041.53;;;11.69;100.00
13661;BME280;6903;49.480;11.102;2022-09-12T05:23:53;98037.13;;;11.90;100.00
13661;BME280;6903;49.480;11.102;2022-09-12T05:26:19;98049.22;;;12.13;100.00
13661;BME280;6903;49.480;11.102;2022-09-12T05:28:46;98049.41;;;12.21;100.00
13661;BME280;6903;49.480;11.102;2022-09-12T05:31:13;98045.75;;;12.33;100.00
13661;BME280;6903;49.480;11.102;2022-09-12T05:33:41;98045.22;;;12.39;100.00
13661;BME280;6903;49.480;11.102;2022-09-12T05:36:10;98054.00;;;12.40;100.00
13661;BME280;6903;49.480;11.102;2022-09-12T05:38:36;98052.28;;;12.39;100.00
13661;BME280;6903;49.480;11.102;2022-09-12T05:41:07;98048.97;;;12.37;100.00
13661;BME280;6903;49.480;11.102;2022-09-12T05:43:33;98052.44;;;12.37;100.00
13661;BME280;6903;49.480;11.102;2022-09-12T05:46:03;98042.97;;;12.35;100.00
13661;BME280;6903;49.480;11.102;2022-09-12T05:48:29;98051.94;;;12.43;100.00
13661;BME280;6903;49.480;11.102;2022-09-12T05:50:59;98046.66;;;12.43;100.00
13661;BME280;6903;49.480;11.102;2022-09-12T05:53:26;98056.97;;;12.46;100.00
13661;BME280;6903;49.480;11.102;2022-09-12T05:56:01;98052.78;;;12.53;100.00
13661;BME280;6903;49.480;11.102;2022-09-12T05:58:27;98049.38;;;12.62;100.00
13661;BME280;6903;49.480;11.102;2022-09-12T06:00:52;98061.13;;;12.79;100.00
13661;BME280;6903;49.480;11.102;2022-09-12T06:03:18;98045.88;;;12.92;100.00
13661;BME280;6903;49.480;11.102;2022-09-12T06:05:43;98058.38;;;13.11;100.00
13661;BME280;6903;49.480;11.102;2022-09-12T06:08:08;98059.78;;;13.24;100.00
13661;BME280;6903;49.480;11.102;2022-09-12T06:10:34;98065.91;;;13.15;100.00
13661;BME280;6903;49.480;11.102;2022-09-12T06:12:59;98069.00;;;13.20;100.00
13661;BME280;6903;49.480;11.102;2022-09-12T06:15:24;98063.72;;;13.39;100.00
13661;BME280;6903;49.480;11.102;2022-09-12T06:17:50;98062.94;;;13.58;100.00
13661;BME280;6903;49.480;11.102;2022-09-12T06:20:15;98061.81;;;13.70;100.00
13661;BME280;6903;49.480;11.102;2022-09-12T06:22:44;98065.75;;;13.85;100.00
13661;BME280;6903;49.480;11.102;2022-09-12T06:25:09;98072.28;;;14.00;100.00
13661;BME280;6903;49.480;11.102;2022-09-12T06:27:34;98063.22;;;14.21;100.00
13661;BME280;6903;49.480;11.102;2022-09-12T06:30:00;98077.03;;;14.35;100.00
13661;BME280;6903;49.480;11.102;2022-09-12T06:32:29;98074.81;;;14.30;100.00
13661;BME280;6903;49.480;11.102;2022-09-12T06:34:54;98067.16;;;14.27;100.00
13661;BME280;6903;49.480;11.102;2022-09-12T06:37:20;98071.47;;;14.28;100.00
13661;BME280;6903;49.480;11.102;2022-09-12T06:39:45;98067.50;;;14.42;100.00
13661;BME280;6903;49.480;11.102;2022-09-12T06:42:12;98074.72;;;14.68;100.00
13661;BME280;6903;49.480;11.102;2022-09-12T06:44:38;98065.09;;;15.04;100.00
13661;BME280;6903;49.480;11.102;2022-09-12T06:47:04;98055.63;;;15.28;100.00
13661;BME280;6903;49.480;11.102;2022-09-12T06:49:29;98062.09;;;15.43;100.00
13661;BME280;6903;49.480;11.102;2022-09-12T06:51:55;98056.78;;;15.43;100.00
13661;BME280;6903;49.480;11.102;2022-09-12T06:54:20;98050.66;;;15.33;100.00
13661;BME280;6903;49.480;11.102;2022-09-12T06:56:47;98060.75;;;15.39;100.00
13661;BME280;6903;49.480;11.102;2022-09-12T06:59:12;98055.81;;;15.44;100.00
13661;BME280;6903;49.480;11.102;2022-09-12T07:01:39;98059.31;;;15.63;100.00
13661;BME280;6903;49.480;11.102;2022-09-12T07:04:05;98066.19;;;15.83;100.00
13661;BME280;6903;49.480;11.102;2022-09-12T07:06:38;98060.56;;;16.03;100.00
13661;BME280;6903;49.480;11.102;2022-09-12T07:09:07;98062.00;;;15.98;100.00
13661;BME280;6903;49.480;11.102;2022-09-12T07:11:35;98064.88;;;15.87;100.00
13661;BME280;6903;49.480;11.102;2022-09-12T07:14:02;98069.81;;;16.17;100.00
13661;BME280;6903;49.480;11.102;2022-09-12T07:16:28;98064.69;;;16.41;100.00
13661;BME280;6903;49.480;11.102;2022-09-12T07:18:56;98062.03;;;16.41;100.00
13661;BME280;6903;49.480;11.102;2022-09-12T07:21:22;98068.19;;;16.41;100.00
13661;BME280;6903;49.480;11.102;2022-09-12T07:23:47;98065.84;;;16.64;100.00
13661;BME280;6903;49.480;11.102;2022-09-12T07:26:14;98061.28;;;16.74;100.00
13661;BME280;6903;49.480;11.102;2022-09-12T07:28:41;98048.00;;;16.82;100.00
13661;BME280;6903;49.480;11.102;2022-09-12T07:31:17;98049.22;;;16.87;100.00
13661;BME280;6903;49.480;11.102;2022-09-12T07:33:43;98050.13;;;16.78;100.00
13661;BME280;6903;49.480;11.102;2022-09-12T07:36:17;98050.13;;;17.04;100.00
13661;BME280;6903;49.480;11.102;2022-09-12T07:38:43;98051.53;;;17.66;100.00
13661;BME280;6903;49.480;11.102;2022-09-12T07:43:37;98032.69;;;17.67;100.00
13661;BME280;6903;49.480;11.102;2022-09-12T07:46:02;98051.34;;;17.67;100.00
13661;BME280;6903;49.480;11.102;2022-09-12T07:48:27;98042.56;;;17.83;100.00
13661;BME280;6903;49.480;11.102;2022-09-12T07:50:57;98043.75;;;18.12;100.00
13661;BME280;6903;49.480;11.102;2022-09-12T07:53:24;98043.75;;;18.45;100.00
13661;BME280;6903;49.480;11.102;2022-09-12T07:55:55;98043.06;;;18.67;100.00
13661;BME280;6903;49.480;11.102;2022-09-12T07:58:21;98038.50;;;18.83;100.00
13661;BME280;6903;49.480;11.102;2022-09-12T08:00:47;98039.41;;;19.14;100.00
13661;BME280;6903;49.480;11.102;2022-09-12T08:03:12;98048.50;;;18.97;100.00
13661;BME280;6903;49.480;11.102;2022-09-12T08:05:37;98043.47;;;19.10;100.00
13661;BME280;6903;49.480;11.102;2022-09-12T08:08:03;98044.31;;;18.95;100.00
13661;BME280;6903;49.480;11.102;2022-09-12T08:10:28;98050.28;;;19.13;100.00
13661;BME280;6903;49.480;11.102;2022-09-12T08:12:54;98056.09;;;19.63;100.00
13661;BME280;6903;49.480;11.102;2022-09-12T08:15:19;98056.50;;;19.83;100.00
13661;BME280;6903;49.480;11.102;2022-09-12T08:17:44;98054.88;;;20.41;100.00
13661;BME280;6903;49.480;11.102;2022-09-12T08:20:10;98057.00;;;20.83;100.00
13661;BME280;6903;49.480;11.102;2022-09-12T08:22:36;98061.69;;;21.18;100.00
13661;BME280;6903;49.480;11.102;2022-09-12T08:25:01;98055.00;;;21.43;100.00
13661;BME280;6903;49.480;11.102;2022-09-12T08:27:27;98046.00;;;21.51;100.00
13661;BME280;6903;49.480;11.102;2022-09-12T08:29:52;98055.06;;;21.50;100.00
13661;BME280;6903;49.480;11.102;2022-09-12T08:32:19;98048.06;;;21.70;100.00
13661;BME280;6903;49.480;11.102;2022-09-12T08:34:44;98057.13;;;22.19;100.00
13661;BME280;6903;49.480;11.102;2022-09-12T08:37:10;98046.75;;;22.37;100.00
13661;BME280;6903;49.480;11.102;2022-09-12T08:39:35;98045.31;;;22.41;100.00
13661;BME280;6903;49.480;11.102;2022-09-12T08:42:02;98047.81;;;22.00;100.00
13661;BME280;6903;49.480;11.102;2022-09-12T08:47:28;98039.34;;;22.18;100.00
13661;BME280;6903;49.480;11.102;2022-09-12T08:55:48;98040.09;;;23.16;100.00
13661;BME280;6903;49.480;11.102;2022-09-12T08:58:22;98039.66;;;23.46;100.00
13661;BME280;6903;49.480;11.102;2022-09-12T09:06:02;98040.66;;;23.32;100.00
13661;BME280;6903;49.480;11.102;2022-09-12T09:08:45;98033.16;;;23.28;100.00
13661;BME280;6903;49.480;11.102;2022-09-12T09:13:46;98028.69;;;24.08;100.00
13661;BME280;6903;49.480;11.102;2022-09-12T09:16:43;98026.66;;;24.49;100.00
13661;BME280;6903;49.480;11.102;2022-09-12T09:19:15;98034.34;;;24.72;100.00
13661;BME280;6903;49.480;11.102;2022-09-12T09:21:49;98024.94;;;25.07;100.00
13661;BME280;6903;49.480;11.102;2022-09-12T09:24:18;98023.81;;;25.91;100.00
13661;BME280;6903;49.480;11.102;2022-09-12T09:26:57;98025.50;;;26.23;100.00
13661;BME280;6903;49.480;11.102;2022-09-12T09:29:35;98023.47;;;26.19;100.00
13661;BME280;6903;49.480;11.102;2022-09-12T09:32:13;98022.84;;;26.17;99.16
13661;BME280;6903;49.480;11.102;2022-09-12T09:34:41;98023.13;;;26.09;92.45
13661;BME280;6903;49.480;11.102;2022-09-12T09:37:18;98024.19;;;25.57;90.96
13661;BME280;6903;49.480;11.102;2022-09-12T09:40:00;98014.75;;;25.35;94.55
13661;BME280;6903;49.480;11.102;2022-09-12T09:42:58;98009.44;;;25.53;91.52
13661;BME280;6903;49.480;11.102;2022-09-12T09:45:26;98018.88;;;26.19;94.15
13661;BME280;6903;49.480;11.102;2022-09-12T09:48:15;97999.47;;;27.03;95.37
13661;BME280;6903;49.480;11.102;2022-09-12T09:50:41;98012.97;;;27.21;86.27
13661;BME280;6903;49.480;11.102;2022-09-12T09:53:14;98000.47;;;26.59;81.96
13661;BME280;6903;49.480;11.102;2022-09-12T09:55:46;97994.97;;;26.16;83.39
13661;BME280;6903;49.480;11.102;2022-09-12T09:58:27;98001.84;;;26.19;83.96
13661;BME280;6903;49.480;11.102;2022-09-12T10:00:58;97992.56;;;26.33;82.75
13661;BME280;6903;49.480;11.102;2022-09-12T10:03:28;97990.88;;;26.38;85.85
13661;BME280;6903;49.480;11.102;2022-09-12T10:05:58;97990.03;;;26.38;85.60
13661;BME280;6903;49.480;11.102;2022-09-12T10:08:32;97998.53;;;26.66;82.89
13661;BME280;6903;49.480;11.102;2022-09-12T10:11:16;97982.75;;;27.06;80.21
13661;BME280;6903;49.480;11.102;2022-09-12T10:13:54;97985.25;;;27.91;76.40
13661;BME280;6903;49.480;11.102;2022-09-12T10:16:33;97985.66;;;29.05;72.69
13661;BME280;6903;49.480;11.102;2022-09-12T10:19:00;97982.81;;;29.63;68.71
13661;BME280;6903;49.480;11.102;2022-09-12T10:21:35;97980.88;;;29.47;60.83
13661;BME280;6903;49.480;11.102;2022-09-12T10:26:53;97971.41;;;29.61;61.31
13661;BME280;6903;49.480;11.102;2022-09-12T10:29:28;97976.91;;;29.77;58.87
13661;BME280;6903;49.480;11.102;2022-09-12T10:31:59;97978.97;;;29.87;61.38
13661;BME280;6903;49.480;11.102;2022-09-12T10:34:30;97972.97;;;29.85;59.64
13661;BME280;6903;49.480;11.102;2022-09-12T10:37:02;97963.34;;;29.94;59.78
13661;BME280;6903;49.480;11.102;2022-09-12T10:39:28;97968.25;;;29.80;58.84
13661;BME280;6903;49.480;11.102;2022-09-12T10:41:55;97969.88;;;30.09;59.93
13661;BME280;6903;49.480;11.102;2022-09-12T10:44:32;97967.84;;;30.16;59.48
13661;BME280;6903;49.480;11.102;2022-09-12T10:46:59;97967.50;;;30.13;58.21
13661;BME280;6903;49.480;11.102;2022-09-12T10:49:28;97972.09;;;29.68;57.67
13661;BME280;6903;49.480;11.102;2022-09-12T10:51:56;97960.84;;;29.36;60.37
13661;BME280;6903;49.480;11.102;2022-09-12T10:54:25;97960.31;;;29.51;59.78
13661;BME280;6903;49.480;11.102;2022-09-12T10:57:35;97957.09;;;29.02;60.77
13661;BME280;6903;49.480;11.102;2022-09-12T11:05:05;97956.72;;;27.89;62.87
13661;BME280;6903;49.480;11.102;2022-09-12T11:08:02;97956.06;;;27.45;63.06
13661;BME280;6903;49.480;11.102;2022-09-12T11:10:59;97961.38;;;27.52;64.39
13661;BME280;6903;49.480;11.102;2022-09-12T11:13:46;97959.88;;;27.56;66.91
13661;BME280;6903;49.480;11.102;2022-09-12T11:24:15;97950.69;;;26.42;67.33
13661;BME280;6903;49.480;11.102;2022-09-12T11:27:10;97943.63;;;26.41;69.48
13661;BME280;6903;49.480;11.102;2022-09-12T11:29:50;97936.34;;;26.41;68.78
13661;BME280;6903;49.480;11.102;2022-09-12T11:32:42;97939.75;;;26.55;70.33
13661;BME280;6903;49.480;11.102;2022-09-12T11:40:26;97932.44;;;27.34;66.41
13661;BME280;6903;49.480;11.102;2022-09-12T11:42:56;97944.44;;;27.56;63.34
13661;BME280;6903;49.480;11.102;2022-09-12T11:45:28;97941.25;;;27.30;63.73
13661;BME280;6903;49.480;11.102;2022-09-12T11:48:02;97938.84;;;27.40;63.12
13661;BME280;6903;49.480;11.102;2022-09-12T11:50:30;97933.13;;;27.48;62.98
13661;BME280;6903;49.480;11.102;2022-09-12T11:53:04;97932.03;;;27.49;61.43
13661;BME280;6903;49.480;11.102;2022-09-12T11:56:12;97928.22;;;27.20;61.91
13661;BME280;6903;49.480;11.102;2022-09-12T11:58:39;97925.31;;;26.86;63.06
13661;BME280;6903;49.480;11.102;2022-09-12T12:03:40;97918.94;;;26.06;66.78
13661;BME280;6903;49.480;11.102;2022-09-12T12:06:11;97926.16;;;26.19;66.00
13661;BME280;6903;49.480;11.102;2022-09-12T12:08:42;97915.00;;;26.09;64.12
13661;BME280;6903;49.480;11.102;2022-09-12T12:11:09;97914.78;;;26.35;63.30
13661;BME280;6903;49.480;11.102;2022-09-12T12:13:58;97914.13;;;26.58;62.67
13661;BME280;6903;49.480;11.102;2022-09-12T12:16:27;97914.78;;;26.96;60.75
13661;BME280;6903;49.480;11.102;2022-09-12T12:18:56;97912.97;;;27.08;59.90
13661;BME280;6903;49.480;11.102;2022-09-12T12:34:28;97894.78;;;27.74;58.62
13661;BME280;6903;49.480;11.102;2022-09-12T12:36:54;97895.59;;;28.04;59.26
13661;BME280;6903;49.480;11.102;2022-09-12T12:39:53;97888.31;;;28.28;56.93
13661;BME280;6903;49.480;11.102;2022-09-12T12:47:43;97884.66;;;28.45;56.42
13661;BME280;6903;49.480;11.102;2022-09-12T12:55:20;97870.41;;;27.86;54.34
13661;BME280;6903;49.480;11.102;2022-09-12T12:57:49;97871.19;;;27.93;54.31
13661;BME280;6903;49.480;11.102;2022-09-12T13:05:37;97865.31;;;28.76;53.19
13661;BME280;6903;49.480;11.102;2022-09-12T13:08:25;97871.47;;;28.72;50.75
13661;BME280;6903;49.480;11.102;2022-09-12T13:11:02;97868.38;;;28.45;50.46
13661;BME280;6903;49.480;11.102;2022-09-12T13:16:09;97851.63;;;28.02;50.49
13661;BME280;6903;49.480;11.102;2022-09-12T13:18:44;97849.03;;;27.96;50.25
13661;BME280;6903;49.480;11.102;2022-09-12T13:21:17;97837.59;;;28.05;50.33
13661;BME280;6903;49.480;11.102;2022-09-12T13:23:44;97839.97;;;28.25;51.48
13661;BME280;6903;49.480;11.102;2022-09-12T13:26:24;97839.63;;;28.56;51.91
13661;BME280;6903;49.480;11.102;2022-09-12T13:29:07;97837.59;;;28.51;49.88
13661;BME280;6903;49.480;11.102;2022-09-12T13:31:33;97839.59;;;28.44;50.08
13661;BME280;6903;49.480;11.102;2022-09-12T13:34:00;97839.22;;;28.06;49.76
13661;BME280;6903;49.480;11.102;2022-09-12T13:39:48;97829.81;;;28.20;51.21
13661;BME280;6903;49.480;11.102;2022-09-12T13:42:33;97829.13;;;28.25;52.46
13661;BME280;6903;49.480;11.102;2022-09-12T13:45:05;97832.66;;;28.14;52.21
13661;BME280;6903;49.480;11.102;2022-09-12T13:47:35;97827.84;;;28.16;53.10
13661;BME280;6903;49.480;11.102;2022-09-12T13:50:03;97822.38;;;27.93;53.02
13661;BME280;6903;49.480;11.102;2022-09-12T13:52:32;97821.63;;;27.86;53.75
13661;BME280;6903;49.480;11.102;2022-09-12T13:54:59;97820.41;;;28.00;53.09
13661;BME280;6903;49.480;11.102;2022-09-12T13:57:30;97820.06;;;28.08;52.19
13661;BME280;6903;49.480;11.102;2022-09-12T13:59:58;97817.66;;;28.11;52.38
13661;BME280;6903;49.480;11.102;2022-09-12T14:02:25;97820.38;;;28.11;52.16
13661;BME280;6903;49.480;11.102;2022-09-12T14:04:53;97818.84;;;28.04;51.78
13661;BME280;6903;49.480;11.102;2022-09-12T14:12:47;97811.66;;;28.21;53.60
13661;BME280;6903;49.480;11.102;2022-09-12T14:15:23;97814.47;;;28.26;54.43
13661;BME280;6903;49.480;11.102;2022-09-12T14:17:51;97804.69;;;28.36;54.89
13661;BME280;6903;49.480;11.102;2022-09-12T14:20:18;97808.00;;;28.50;54.39
13661;BME280;6903;49.480;11.102;2022-09-12T14:22:44;97810.84;;;28.32;53.05
13661;BME280;6903;49.480;11.102;2022-09-12T14:25:15;97805.91;;;28.06;52.90
13661;BME280;6903;49.480;11.102;2022-09-12T14:27:45;97806.69;;;28.06;53.20
13661;BME280;6903;49.480;11.102;2022-09-12T14:30:21;97795.88;;;27.95;53.26
13661;BME280;6903;49.480;11.102;2022-09-12T14:35:38;97796.25;;;27.45;55.38
13661;BME280;6903;49.480;11.102;2022-09-12T14:38:12;97789.97;;;27.45;55.48
13661;BME280;6903;49.480;11.102;2022-09-12T14:40:48;97796.59;;;27.08;55.72
13661;BME280;6903;49.480;11.102;2022-09-12T14:43:27;97798.94;;;26.86;56.39
13661;BME280;6903;49.480;11.102;2022-09-12T14:46:00;97792.06;;;26.72;57.55
13661;BME280;6903;49.480;11.102;2022-09-12T14:48:32;97788.38;;;26.67;58.35
13661;BME280;6903;49.480;11.102;2022-09-12T14:50:59;97793.44;;;26.57;59.54
13661;BME280;6903;49.480;11.102;2022-09-12T14:53:36;97785.66;;;26.67;60.01
13661;BME280;6903;49.480;11.102;2022-09-12T14:56:06;97779.88;;;26.81;59.67